createdAt,value
2022-11-22T00:01:48.355Z,9.40
2022-11-22T00:04:15.309Z,9.40
2022-11-22T00:06:42.194Z,9.40
2022-11-22T00:09:09.021Z,9.40
2022-11-22T00:11:36.006Z,9.30
2022-11-22T00:14:02.917Z,9.30
2022-11-22T00:16:34.796Z,9.30
2022-11-22T00:19:01.727Z,9.30
2022-11-22T00:21:28.771Z,9.30
2022-11-22T00:23:58.484Z,9.30
2022-11-22T00:26:25.424Z,9.20
2022-11-22T00:28:52.381Z,9.20
2022-11-22T00:31:19.436Z,9.20
2022-11-22T00:33:46.384Z,9.20
2022-11-22T00:36:13.297Z,9.10
2022-11-22T00:38:40.658Z,9.10
2022-11-22T00:41:10.052Z,9.10
2022-11-22T00:43:37.108Z,9.00
2022-11-22T00:46:03.968Z,9.00
2022-11-22T00:48:30.998Z,9.00
2022-11-22T00:50:57.927Z,9.00
2022-11-22T00:53:24.872Z,8.90
2022-11-22T00:55:51.871Z,8.90
2022-11-22T00:58:19.068Z,8.90
2022-11-22T01:00:45.975Z,8.80
2022-11-22T01:03:13.475Z,8.80
2022-11-22T01:05:40.481Z,8.80
2022-11-22T01:08:07.459Z,8.80
2022-11-22T01:10:37.275Z,8.80
2022-11-22T01:13:05.252Z,8.70
2022-11-22T01:15:32.816Z,8.70
2022-11-22T01:17:59.643Z,8.70
2022-11-22T01:20:26.482Z,8.60
2022-11-22T01:22:53.530Z,8.60
2022-11-22T01:25:20.574Z,8.60
2022-11-22T01:27:48.046Z,8.60
2022-11-22T01:30:15.082Z,8.60
2022-11-22T01:32:41.921Z,8.50
2022-11-22T01:35:10.664Z,8.50
2022-11-22T01:37:37.674Z,8.50
2022-11-22T01:40:04.696Z,8.50
2022-11-22T01:42:44.538Z,8.40
2022-11-22T01:45:29.515Z,8.40
2022-11-22T01:47:56.452Z,8.40
2022-11-22T01:50:23.504Z,8.40
2022-11-22T01:52:50.462Z,8.40
2022-11-22T01:55:17.902Z,8.30
2022-11-22T01:57:45.562Z,8.30
2022-11-22T02:00:14.084Z,8.30
2022-11-22T02:02:41.229Z,8.30
2022-11-22T02:05:13.060Z,8.30
2022-11-22T02:08:00.958Z,8.30
2022-11-22T02:10:28.961Z,8.20
2022-11-22T02:12:59.823Z,8.20
2022-11-22T02:15:26.706Z,8.20
2022-11-22T02:17:53.471Z,8.20
2022-11-22T02:20:20.422Z,8.10
2022-11-22T02:22:54.945Z,8.10
2022-11-22T02:25:25.011Z,8.10
2022-11-22T02:27:52.140Z,8.10
2022-11-22T02:30:19.567Z,8.10
2022-11-22T02:32:46.727Z,8.00
2022-11-22T02:35:18.107Z,8.00
2022-11-22T02:37:45.123Z,8.00
2022-11-22T02:40:14.618Z,8.00
2022-11-22T02:42:44.459Z,8.00
2022-11-22T02:45:11.420Z,7.90
2022-11-22T02:47:38.415Z,7.90
2022-11-22T02:50:05.475Z,7.80
2022-11-22T02:52:32.340Z,7.80
2022-11-22T02:54:59.222Z,7.80
2022-11-22T02:57:26.050Z,7.80
2022-11-22T02:59:52.861Z,7.80
2022-11-22T03:02:19.746Z,7.80
2022-11-22T03:04:46.829Z,7.80
2022-11-22T03:07:13.763Z,7.70
2022-11-22T03:09:40.623Z,7.70
2022-11-22T03:12:07.502Z,7.70
2022-11-22T03:14:34.323Z,7.70
2022-11-22T03:17:01.156Z,7.70
2022-11-22T03:19:28.211Z,7.60
2022-11-22T03:21:55.331Z,7.60
2022-11-22T03:24:22.168Z,7.60
2022-11-22T03:26:49.968Z,7.60
2022-11-22T03:29:17.436Z,7.50
2022-11-22T03:31:44.387Z,7.50
2022-11-22T03:34:11.989Z,7.50
2022-11-22T03:36:38.833Z,7.50
2022-11-22T03:39:05.703Z,7.50
2022-11-22T03:41:32.517Z,7.40
2022-11-22T03:43:59.386Z,7.40
2022-11-22T03:46:26.382Z,7.40
2022-11-22T03:48:53.301Z,7.40
2022-11-22T03:51:20.214Z,7.30
2022-11-22T03:53:47.104Z,7.30
2022-11-22T03:56:13.955Z,7.30
2022-11-22T03:58:41.290Z,7.30
2022-11-22T04:01:10.819Z,7.30
2022-11-22T04:03:41.823Z,7.20
2022-11-22T04:06:08.839Z,7.20
2022-11-22T04:08:35.739Z,7.20
2022-11-22T04:11:02.717Z,7.20
2022-11-22T04:13:48.088Z,7.20
2022-11-22T04:16:14.932Z,7.20
2022-11-22T04:18:41.879Z,7.10
2022-11-22T04:21:27.383Z,7.20
2022-11-22T04:24:26.652Z,7.10
2022-11-22T04:26:53.691Z,7.10
2022-11-22T04:29:20.753Z,7.10
2022-11-22T04:32:06.462Z,7.10
2022-11-22T04:34:33.525Z,7.00
2022-11-22T04:37:00.573Z,7.00
2022-11-22T04:39:27.946Z,7.00
2022-11-22T04:42:15.622Z,7.00
2022-11-22T04:44:43.312Z,7.00
2022-11-22T04:47:33.873Z,7.00
2022-11-22T04:50:01.325Z,7.00
2022-11-22T04:52:46.906Z,7.00
2022-11-22T04:55:13.862Z,7.00
2022-11-22T04:57:40.735Z,7.00
2022-11-22T05:00:07.842Z,6.90
2022-11-22T05:02:34.691Z,6.90
2022-11-22T05:05:01.544Z,6.90
2022-11-22T05:07:28.625Z,6.90
2022-11-22T05:09:55.517Z,6.90
2022-11-22T05:12:22.368Z,6.90
2022-11-22T05:14:49.213Z,6.90
2022-11-22T05:17:16.143Z,6.80
2022-11-22T05:19:47.919Z,6.80
2022-11-22T05:22:16.388Z,6.80
2022-11-22T05:24:43.332Z,6.80
2022-11-22T05:27:10.183Z,6.80
2022-11-22T05:29:37.101Z,6.80
2022-11-22T05:32:04.374Z,6.70
2022-11-22T05:34:31.325Z,6.80
2022-11-22T05:36:58.266Z,6.80
2022-11-22T05:39:25.213Z,6.80
2022-11-22T05:41:57.945Z,6.80
2022-11-22T05:44:24.927Z,6.80
2022-11-22T05:46:51.992Z,6.80
2022-11-22T05:49:18.869Z,6.80
2022-11-22T05:51:45.967Z,6.70
2022-11-22T05:54:13.015Z,6.70
2022-11-22T05:56:40.129Z,6.70
2022-11-22T05:59:07.617Z,6.70
2022-11-22T06:01:34.650Z,6.70
2022-11-22T06:04:03.045Z,6.70
2022-11-22T06:06:29.990Z,6.70
2022-11-22T06:08:57.042Z,6.60
2022-11-22T06:11:25.442Z,6.60
2022-11-22T06:13:54.540Z,6.60
2022-11-22T06:16:21.933Z,6.70
2022-11-22T06:18:49.519Z,6.60
2022-11-22T06:21:18.098Z,6.60
2022-11-22T06:23:45.363Z,6.70
2022-11-22T06:26:13.830Z,6.70
2022-11-22T06:28:40.813Z,6.70
2022-11-22T06:31:18.268Z,6.70
2022-11-22T06:33:45.683Z,6.70
2022-11-22T06:36:13.942Z,6.70
2022-11-22T06:38:42.090Z,6.70
2022-11-22T06:41:10.148Z,6.70
2022-11-22T06:43:37.906Z,6.80
2022-11-22T06:46:06.558Z,6.80
2022-11-22T06:48:35.162Z,6.90
2022-11-22T06:51:12.508Z,6.90
2022-11-22T06:53:47.252Z,6.90
2022-11-22T06:56:23.987Z,7.00
2022-11-22T06:58:52.330Z,7.00
2022-11-22T07:01:21.029Z,7.00
2022-11-22T07:03:48.372Z,7.00
2022-11-22T07:06:16.128Z,7.00
2022-11-22T07:08:43.760Z,7.00
2022-11-22T07:11:18.005Z,7.00
2022-11-22T07:13:45.464Z,7.10
2022-11-22T07:16:13.856Z,7.10
2022-11-22T07:18:41.025Z,7.10
2022-11-22T07:21:13.544Z,7.10
2022-11-22T07:23:44.719Z,7.20
2022-11-22T07:26:12.040Z,7.10
2022-11-22T07:28:38.942Z,7.20
2022-11-22T07:31:07.598Z,7.20
2022-11-22T07:33:34.659Z,7.30
2022-11-22T07:36:21.288Z,7.30
2022-11-22T07:38:48.809Z,7.30
2022-11-22T07:41:16.593Z,7.40
2022-11-22T07:43:43.486Z,7.40
2022-11-22T07:46:16.582Z,7.40
2022-11-22T07:48:43.477Z,7.40
2022-11-22T07:51:10.295Z,7.40
2022-11-22T07:53:37.214Z,7.40
2022-11-22T07:56:05.120Z,7.40
2022-11-22T07:58:32.549Z,7.40
2022-11-22T08:01:06.527Z,7.40
2022-11-22T08:03:33.677Z,7.50
2022-11-22T08:06:01.387Z,7.50
2022-11-22T08:08:29.554Z,7.50
2022-11-22T08:10:57.839Z,7.60
2022-11-22T08:13:25.173Z,7.60
2022-11-22T08:15:54.685Z,7.60
2022-11-22T08:18:22.649Z,7.70
2022-11-22T08:20:49.601Z,7.70
2022-11-22T08:23:16.971Z,7.70
2022-11-22T08:25:44.129Z,7.70
2022-11-22T08:28:11.256Z,7.70
2022-11-22T08:30:38.183Z,7.80
2022-11-22T08:33:05.015Z,7.80
2022-11-22T08:35:33.331Z,7.80
2022-11-22T08:38:00.538Z,7.80
2022-11-22T08:40:27.370Z,7.80
2022-11-22T08:42:56.053Z,7.80
2022-11-22T08:45:22.909Z,7.80
2022-11-22T08:47:49.859Z,7.80
2022-11-22T08:50:17.522Z,7.80
2022-11-22T08:52:44.416Z,7.90
2022-11-22T08:55:11.262Z,7.90
2022-11-22T08:57:38.247Z,7.90
2022-11-22T09:00:06.389Z,7.90
2022-11-22T09:02:33.303Z,7.90
2022-11-22T09:05:00.238Z,7.90
2022-11-22T09:10:15.039Z,8.00
2022-11-22T09:12:45.753Z,8.00
2022-11-22T09:15:13.190Z,8.00
2022-11-22T09:17:40.352Z,8.10
2022-11-22T09:20:07.607Z,8.10
2022-11-22T09:22:34.526Z,8.10
2022-11-22T09:25:01.437Z,8.00
2022-11-22T09:27:28.281Z,8.10
2022-11-22T09:29:55.242Z,8.10
2022-11-22T09:32:22.152Z,8.10
2022-11-22T09:34:49.005Z,8.00
2022-11-22T09:37:18.789Z,8.10
2022-11-22T09:39:48.465Z,8.10
2022-11-22T09:42:15.711Z,8.10
2022-11-22T09:44:42.488Z,8.20
2022-11-22T09:47:15.345Z,8.30
2022-11-22T09:49:47.980Z,8.30
2022-11-22T09:52:23.974Z,8.20
2022-11-22T09:55:02.509Z,8.20
2022-11-22T09:57:34.169Z,8.20
2022-11-22T10:00:03.015Z,8.30
2022-11-22T10:02:43.501Z,8.30
2022-11-22T10:05:25.314Z,8.40
2022-11-22T10:07:58.069Z,8.40
2022-11-22T10:10:30.163Z,8.30
2022-11-22T10:13:02.160Z,8.40
2022-11-22T10:15:36.803Z,8.40
2022-11-22T10:18:06.557Z,8.40
2022-11-22T10:20:36.038Z,8.50
2022-11-22T10:23:03.923Z,8.40
2022-11-22T10:25:39.427Z,8.50
2022-11-22T10:28:19.724Z,8.50
2022-11-22T10:30:53.225Z,8.50
2022-11-22T10:33:25.523Z,8.40
2022-11-22T10:35:55.438Z,8.30
2022-11-22T10:38:22.587Z,8.40
2022-11-22T10:40:58.411Z,8.40
2022-11-22T10:43:37.410Z,8.40
2022-11-22T10:46:10.622Z,8.50
2022-11-22T10:48:37.658Z,8.50
2022-11-22T10:51:13.525Z,8.50
2022-11-22T10:53:52.440Z,8.50
2022-11-22T10:56:19.283Z,8.60
2022-11-22T10:58:51.928Z,8.60
2022-11-22T11:01:24.628Z,8.70
2022-11-22T11:03:53.537Z,8.70
2022-11-22T11:06:56.937Z,8.70
2022-11-22T11:12:37.008Z,8.80
2022-11-22T11:15:22.610Z,8.80
2022-11-22T11:17:51.671Z,8.80
2022-11-22T11:20:23.777Z,8.80
2022-11-22T11:25:42.634Z,8.80
2022-11-22T11:28:27.068Z,8.90
2022-11-22T11:30:57.028Z,8.90
2022-11-22T11:33:29.981Z,9.00
2022-11-22T11:36:01.209Z,9.00
2022-11-22T11:38:29.587Z,9.00
2022-11-22T11:40:56.534Z,9.10
2022-11-22T11:43:24.493Z,9.10
2022-11-22T11:45:52.178Z,9.10
2022-11-22T11:48:43.779Z,9.10
2022-11-22T11:51:29.386Z,9.20
2022-11-22T11:54:00.600Z,9.30
2022-11-22T11:56:39.725Z,9.30
2022-11-22T11:59:10.290Z,9.30
2022-11-22T12:01:40.821Z,9.30
2022-11-22T12:04:16.226Z,9.40
2022-11-22T12:06:52.587Z,9.40
2022-11-22T12:09:48.764Z,9.40
2022-11-22T12:12:15.574Z,9.50
2022-11-22T12:15:09.581Z,9.50
2022-11-22T12:17:31.356Z,9.60
2022-11-22T12:20:06.224Z,9.60
2022-11-22T12:23:05.604Z,9.50
2022-11-22T12:25:36.830Z,9.60
2022-11-22T12:28:10.108Z,9.60
2022-11-22T12:30:37.664Z,9.70
2022-11-22T12:33:05.575Z,9.70
2022-11-22T12:35:37.028Z,9.70
2022-11-22T12:38:08.823Z,9.70
2022-11-22T12:40:47.458Z,9.70
2022-11-22T12:43:17.356Z,9.70
2022-11-22T12:45:48.249Z,9.70
2022-11-22T12:48:22.162Z,9.70
2022-11-22T12:50:51.028Z,9.70
2022-11-22T12:53:21.373Z,9.70
2022-11-22T12:56:00.583Z,9.70
2022-11-22T12:58:27.526Z,9.70
2022-11-22T13:01:08.068Z,9.70
2022-11-22T13:03:42.331Z,9.60
2022-11-22T13:06:10.840Z,9.60
2022-11-22T13:08:40.935Z,9.60
2022-11-22T13:11:16.920Z,9.60
2022-11-22T13:13:48.675Z,9.60
2022-11-22T13:16:15.555Z,9.60
2022-11-22T13:18:46.631Z,9.60
2022-11-22T13:21:22.549Z,9.60
2022-11-22T13:23:56.258Z,9.50
2022-11-22T13:26:30.774Z,9.50
2022-11-22T13:28:58.063Z,9.50
2022-11-22T13:31:25.169Z,9.50
2022-11-22T13:33:56.415Z,9.50
2022-11-22T13:36:23.254Z,9.50
2022-11-22T13:38:52.492Z,9.50
2022-11-22T13:41:21.702Z,9.50
2022-11-22T13:43:50.579Z,9.50
2022-11-22T13:46:36.316Z,9.50
2022-11-22T13:49:21.736Z,9.50
2022-11-22T13:51:55.858Z,9.50
2022-11-22T13:54:37.909Z,9.40
2022-11-22T13:57:25.504Z,9.40
2022-11-22T14:00:11.008Z,9.40
2022-11-22T14:02:48.004Z,9.40
2022-11-22T14:05:26.813Z,9.50
2022-11-22T14:07:56.014Z,9.40
2022-11-22T14:10:32.093Z,9.40
2022-11-22T14:12:58.934Z,9.40
2022-11-22T14:15:38.054Z,9.40
2022-11-22T14:18:27.912Z,9.50
2022-11-22T14:20:54.704Z,9.50
2022-11-22T14:23:21.516Z,9.50
2022-11-22T14:26:11.697Z,9.50
2022-11-22T14:28:56.441Z,9.50
2022-11-22T14:31:33.957Z,9.50
2022-11-22T14:34:19.474Z,9.50
2022-11-22T14:37:06.267Z,9.50
2022-11-22T14:39:45.174Z,9.50
2022-11-22T14:42:30.448Z,9.50
2022-11-22T14:44:57.411Z,9.50
2022-11-22T14:47:24.642Z,9.50
2022-11-22T14:49:53.406Z,9.50
2022-11-22T14:52:21.816Z,9.50
2022-11-22T14:54:50.469Z,9.50
2022-11-22T14:57:19.565Z,9.50
2022-11-22T14:59:46.395Z,9.60
2022-11-22T15:02:31.738Z,9.60
2022-11-22T15:09:14.916Z,9.60
2022-11-22T15:09:21.751Z,9.60
2022-11-22T15:11:29.735Z,9.60
2022-11-22T15:14:15.360Z,9.70
2022-11-22T15:59:36.759Z,9.90
2022-11-22T16:02:04.101Z,9.90
2022-11-22T16:04:34.847Z,9.90
2022-11-22T16:07:03.885Z,10.00
2022-11-22T16:09:34.958Z,10.00
2022-11-22T16:12:05.944Z,10.00
2022-11-22T16:14:38.643Z,10.00
2022-11-22T16:17:24.616Z,10.00
2022-11-22T16:19:51.805Z,10.00
2022-11-22T16:22:29.688Z,10.00
2022-11-22T16:25:15.298Z,10.00
2022-11-22T16:27:46.909Z,10.00
2022-11-22T16:30:17.103Z,10.00
2022-11-22T16:32:47.943Z,10.00
2022-11-22T16:35:29.021Z,10.00
2022-11-22T16:37:56.687Z,10.00
2022-11-22T16:40:23.585Z,10.00
2022-11-22T16:42:54.106Z,10.10
2022-11-22T16:45:21.963Z,10.10
2022-11-22T16:48:03.623Z,10.10
2022-11-22T16:50:38.830Z,10.10
2022-11-22T16:53:08.818Z,10.10
2022-11-22T16:55:35.660Z,10.10
2022-11-22T16:58:10.311Z,10.10
2022-11-22T17:00:37.940Z,10.10
2022-11-22T17:03:04.981Z,10.20
2022-11-22T17:05:31.804Z,10.10
2022-11-22T17:07:58.741Z,10.10
2022-11-22T17:10:25.585Z,10.10
2022-11-22T17:12:52.432Z,10.10
2022-11-22T17:15:22.574Z,10.10
2022-11-22T17:17:49.375Z,10.10
2022-11-22T17:20:16.187Z,10.10
2022-11-22T17:22:43.804Z,10.20
2022-11-22T17:25:13.933Z,10.20
2022-11-22T17:27:41.284Z,10.20
2022-11-22T17:30:08.537Z,10.20
2022-11-22T17:32:37.303Z,10.20
2022-11-22T17:35:04.308Z,10.30
2022-11-22T17:37:31.118Z,10.20
2022-11-22T17:39:58.019Z,10.20
2022-11-22T17:42:24.838Z,10.20
2022-11-22T17:44:51.671Z,10.20
2022-11-22T17:47:21.331Z,10.20
2022-11-22T17:49:48.782Z,10.20
2022-11-22T17:52:15.636Z,10.20
2022-11-22T17:54:42.483Z,10.20
2022-11-22T17:57:09.326Z,10.20
2022-11-22T17:59:36.161Z,10.20
2022-11-22T18:02:03.253Z,10.20
2022-11-22T18:04:30.387Z,10.30
2022-11-22T18:06:57.499Z,10.20
2022-11-22T18:09:24.318Z,10.30
2022-11-22T18:11:51.337Z,10.20
2022-11-22T18:14:18.166Z,10.20
2022-11-22T18:16:44.986Z,10.30
2022-11-22T18:19:12.298Z,10.30
2022-11-22T18:21:39.239Z,10.30
2022-11-22T18:24:08.615Z,10.30
2022-11-22T18:26:40.345Z,10.30
2022-11-22T18:29:39.125Z,10.30
2022-11-22T18:31:56.013Z,10.40
2022-11-22T18:34:23.209Z,10.40
2022-11-22T18:37:01.867Z,10.30
2022-11-22T18:39:31.631Z,10.30
2022-11-22T18:41:58.813Z,10.30
2022-11-22T18:44:25.794Z,10.30
2022-11-22T18:46:52.940Z,10.30
2022-11-22T18:49:20.615Z,10.30
2022-11-22T18:51:47.437Z,10.30
2022-11-22T18:54:14.512Z,10.40
2022-11-22T18:56:43.775Z,10.40
2022-11-22T18:59:13.050Z,10.40
2022-11-22T19:01:40.061Z,10.40
2022-11-22T19:04:12.022Z,10.40
2022-11-22T19:06:38.942Z,10.40
2022-11-22T19:09:05.741Z,10.40
2022-11-22T19:11:32.709Z,10.40
2022-11-22T19:13:59.614Z,10.40
2022-11-22T19:16:29.689Z,10.40
2022-11-22T19:18:57.167Z,10.40
2022-11-22T19:21:25.813Z,10.40
2022-11-22T19:23:55.784Z,10.40
2022-11-22T19:26:23.995Z,10.40
2022-11-22T19:28:52.340Z,10.40
2022-11-22T19:31:20.551Z,10.30
2022-11-22T19:33:47.768Z,10.40
2022-11-22T19:36:15.814Z,10.40
2022-11-22T19:38:43.026Z,10.40
2022-11-22T19:41:11.353Z,10.40
2022-11-22T19:43:38.372Z,10.40
2022-11-22T19:46:05.908Z,10.40
2022-11-22T19:48:33.201Z,10.40
2022-11-22T19:51:04.977Z,10.30
2022-11-22T19:53:31.991Z,10.40
2022-11-22T19:56:09.960Z,10.30
2022-11-22T19:58:36.900Z,10.40
2022-11-22T20:01:05.726Z,10.40
2022-11-22T20:03:33.786Z,10.30
2022-11-22T20:06:01.628Z,10.30
2022-11-22T20:08:29.042Z,10.30
2022-11-22T20:11:12.312Z,10.30
2022-11-22T20:13:40.330Z,10.30
2022-11-22T20:16:11.131Z,10.30
2022-11-22T20:18:38.527Z,10.30
2022-11-22T20:21:06.678Z,10.30
2022-11-22T20:23:33.891Z,10.30
2022-11-22T20:26:12.024Z,10.20
2022-11-22T20:28:41.629Z,10.20
2022-11-22T20:31:09.698Z,10.20
2022-11-22T20:33:37.309Z,10.20
2022-11-22T20:36:09.090Z,10.20
2022-11-22T20:38:39.631Z,10.20
2022-11-22T20:41:06.889Z,10.20
2022-11-22T20:43:34.569Z,10.30
2022-11-22T20:46:12.045Z,10.30
2022-11-22T20:48:39.736Z,10.20
2022-11-22T20:51:08.095Z,10.20
2022-11-22T20:53:35.436Z,10.20
2022-11-22T20:56:02.580Z,10.30
2022-11-22T20:58:29.716Z,10.30
2022-11-22T21:00:57.253Z,10.30
2022-11-22T21:03:24.534Z,10.30
2022-11-22T21:05:52.493Z,10.30
2022-11-22T21:08:19.608Z,10.30
2022-11-22T21:10:46.527Z,10.30
2022-11-22T21:13:13.483Z,10.40
2022-11-22T21:15:40.479Z,10.30
2022-11-22T21:18:24.766Z,10.40
2022-11-22T21:20:52.465Z,10.40
2022-11-22T21:23:19.393Z,10.40
2022-11-22T21:25:46.616Z,10.50
2022-11-22T21:28:13.435Z,10.70
2022-11-22T21:30:40.372Z,10.80
2022-11-22T21:33:07.212Z,11.00
2022-11-22T21:35:34.058Z,11.10
2022-11-22T21:38:01.113Z,11.20
2022-11-22T21:40:28.158Z,11.30
2022-11-22T21:42:54.993Z,11.30
2022-11-22T21:45:21.889Z,11.40
2022-11-22T21:47:49.938Z,11.40
2022-11-22T21:50:16.990Z,11.40
2022-11-22T21:52:44.046Z,11.40
2022-11-22T21:55:11.780Z,11.40
2022-11-22T21:57:39.014Z,11.50
2022-11-22T22:00:06.166Z,11.50
2022-11-22T22:02:33.554Z,11.50
2022-11-22T22:05:00.406Z,11.50
2022-11-22T22:07:51.313Z,11.50
2022-11-22T22:10:14.951Z,11.50
2022-11-22T22:12:42.079Z,11.50
2022-11-22T22:15:11.307Z,11.50
2022-11-22T22:17:38.218Z,11.60
2022-11-22T22:20:05.673Z,11.60
2022-11-22T22:22:34.886Z,11.60
2022-11-22T22:25:01.814Z,11.60
2022-11-22T22:27:30.398Z,11.60
2022-11-22T22:29:57.238Z,11.60
2022-11-22T22:32:25.705Z,11.60
2022-11-22T22:34:52.826Z,11.60
2022-11-22T22:37:20.129Z,11.60
2022-11-22T22:39:47.027Z,11.60
2022-11-22T22:42:14.519Z,11.50
2022-11-22T22:44:41.325Z,11.50
2022-11-22T22:47:08.230Z,11.50
2022-11-22T22:49:35.231Z,11.60
2022-11-22T22:52:02.055Z,11.50
2022-11-22T22:54:32.009Z,11.60
2022-11-22T22:56:58.961Z,11.50
2022-11-22T22:59:26.032Z,11.50
2022-11-22T23:01:53.148Z,11.50
2022-11-22T23:04:20.294Z,11.50
2022-11-22T23:06:47.208Z,11.50
2022-11-22T23:09:14.145Z,11.40
2022-11-22T23:11:59.903Z,11.40
2022-11-22T23:14:27.732Z,11.40
2022-11-22T23:16:57.997Z,11.40
2022-11-22T23:19:26.407Z,11.40
2022-11-22T23:21:53.549Z,11.40
2022-11-22T23:24:20.948Z,11.30
2022-11-22T23:26:47.819Z,11.30
2022-11-22T23:29:14.905Z,11.40
2022-11-22T23:31:41.770Z,11.40
2022-11-22T23:34:09.757Z,11.30
2022-11-22T23:36:40.734Z,11.30
2022-11-22T23:39:08.444Z,11.20
2022-11-22T23:41:35.486Z,11.30
2022-11-22T23:44:02.479Z,11.30
2022-11-22T23:46:29.590Z,11.20
2022-11-22T23:48:57.758Z,11.20
2022-11-22T23:51:25.214Z,11.30
2022-11-22T23:53:59.650Z,11.20
2022-11-22T23:56:27.401Z,11.30
2022-11-22T23:58:54.547Z,11.30
